Time;durP1;ratioP1;P1;durP2;ratioP2;P2;SDS_P1;SDS_P2;PMS_P1;PMS_P2;Temp;Humidity;BMP_temperature;BMP_pressure;BME280_temperature;BME280_humidity;BME280_pressure;Samples;Min_cycle;Max_cycle;Signal;HPM_P1;HPM_P2
2023/12/02 00:15:12;;;;;;;4.03;3.30;;;;;;;20.21;53.91;98647.06;41314045;28;20706;-71
2023/12/02 00:35:12;;;;;;;4.55;3.30;;;;;;;20.31;54.00;98647.75;41275993;28;20050;-72
2023/12/02 00:55:12;;;;;;;4.85;3.60;;;;;;;20.24;53.94;98654.63;41333981;28;20046;-71
2023/12/02 01:15:13;;;;;;;4.38;3.40;;;;;;;20.25;53.75;98622.94;41363471;28;20128;-72
2023/12/02 01:35:13;;;;;;;3.55;3.08;;;;;;;20.27;53.80;98628.84;41289266;28;20042;-71
2023/12/02 01:55:14;;;;;;;3.83;3.10;;;;;;;20.21;53.81;98618.13;41256251;28;20076;-71
2023/12/02 02:15:15;;;;;;;3.55;3.17;;;;;;;20.26;54.09;98589.59;41285822;28;21298;-72
2023/12/02 02:35:15;;;;;;;3.78;3.25;;;;;;;20.36;53.27;98571.91;41293344;28;20050;-72
2023/12/02 02:55:16;;;;;;;6.38;3.90;;;;;;;20.54;53.53;98570.97;41250557;28;20049;-75
2023/12/02 03:15:16;;;;;;;6.00;4.18;;;;;;;20.24;53.80;98554.78;41347325;28;20401;-73
2023/12/02 03:35:16;;;;;;;5.90;3.97;;;;;;;20.15;53.96;98552.09;41429944;28;20057;-74
2023/12/02 03:55:18;;;;;;;5.07;3.70;;;;;;;20.14;54.11;98523.31;41416095;28;20038;-76
2023/12/02 04:15:18;;;;;;;6.85;3.75;;;;;;;20.11;53.95;98537.59;41346128;28;20049;-76
2023/12/02 04:35:19;;;;;;;5.72;3.58;;;;;;;20.14;53.56;98541.72;41316060;28;20054;-74
2023/12/02 04:55:20;;;;;;;5.95;4.07;;;;;;;20.11;53.19;98513.97;41424267;28;20049;-75
2023/12/02 05:15:21;;;;;;;6.38;3.72;;;;;;;20.43;52.44;98488.81;41453217;28;20121;-76
2023/12/02 05:35:22;;;;;;;6.30;3.58;;;;;;;20.90;51.77;98483.97;41414522;28;20608;-76
2023/12/02 05:55:22;;;;;;;11.65;4.72;;;;;;;20.97;52.02;98482.34;41311231;28;20053;-76
2023/12/02 06:15:22;;;;;;;7.22;3.85;;;;;;;20.98;51.68;98462.91;41285177;28;20544;-73
2023/12/02 06:35:23;;;;;;;5.93;3.65;;;;;;;20.94;51.41;98517.66;41262819;28;20050;-72
2023/12/02 06:55:24;;;;;;;4.88;3.70;;;;;;;20.85;51.78;98504.66;41320486;28;20057;-73
2023/12/02 07:15:24;;;;;;;4.90;3.50;;;;;;;20.89;51.49;98521.78;41301422;28;20046;-75
2023/12/02 07:35:24;;;;;;;5.53;3.50;;;;;;;20.89;51.52;98504.19;41283479;28;20542;-75
2023/12/02 07:55:25;;;;;;;5.30;4.13;;;;;;;20.98;51.54;98476.06;41344452;28;20129;-76
2023/12/02 08:15:25;;;;;;;8.93;4.63;;;;;;;20.99;51.23;98493.50;41375257;28;20050;-76
2023/12/02 08:35:26;;;;;;;7.18;5.18;;;;;;;20.93;51.34;98521.31;41401089;28;20042;-76
2023/12/02 08:55:26;;;;;;;9.02;5.60;;;;;;;21.05;51.31;98520.97;41460939;28;20195;-79
2023/12/02 09:15:41;;;;;;;17.98;9.73;;;;;;;19.79;41.80;98522.47;41385858;28;20046;-75
2023/12/02 09:35:41;;;;;;;15.60;9.43;;;;;;;20.58;44.51;98493.41;41356253;28;20584;-79
2023/12/02 09:55:53;;;;;;;17.75;10.48;;;;;;;19.95;45.04;98487.63;41379843;28;20044;-80
2023/12/02 10:15:57;;;;;;;18.63;9.52;;;;;;;20.55;45.20;98459.56;41504364;28;20088;-76
2023/12/02 10:36:07;;;;;;;14.70;9.82;;;;;;;20.59;46.55;98460.88;41500574;28;20124;-79
2023/12/02 10:56:16;;;;;;;15.73;10.13;;;;;;;20.61;47.59;98399.25;41500152;28;20054;-80
2023/12/02 11:16:32;;;;;;;13.88;9.88;;;;;;;20.62;47.63;98392.19;41583719;28;20041;-76
2023/12/02 11:37:09;;;;;;;14.52;10.02;;;;;;;20.68;47.89;98361.78;41510001;28;20055;-80
2023/12/02 11:57:49;;;;;;;13.52;9.57;;;;;;;20.69;48.21;98400.25;41492304;28;20056;-80
2023/12/02 12:17:51;;;;;;;14.55;10.43;;;;;;;20.77;48.13;98380.03;41497982;28;20061;-79
2023/12/02 12:37:51;;;;;;;14.63;10.75;;;;;;;20.70;48.26;98380.84;41470598;28;20045;-81
2023/12/02 12:57:56;;;;;;;14.68;10.38;;;;;;;20.71;48.36;98332.53;41479549;28;20065;-81
2023/12/02 13:17:57;;;;;;;14.05;9.75;;;;;;;20.74;48.50;98392.72;41526792;28;20575;-81
2023/12/02 13:38:23;;;;;;;14.27;9.60;;;;;;;20.79;48.34;98393.06;41539037;28;20069;-81
2023/12/02 13:58:36;;;;;;;14.77;9.85;;;;;;;20.79;48.63;98496.44;41574813;28;20041;-80
2023/12/02 14:19:02;;;;;;;11.90;8.40;;;;;;;20.75;48.64;98492.50;41591119;28;20125;-82
2023/12/02 14:39:19;;;;;;;11.25;7.93;;;;;;;20.82;47.97;98529.50;41508159;28;20046;-81
2023/12/02 14:59:22;;;;;;;10.60;7.43;;;;;;;20.71;48.25;98485.06;41508702;28;20050;-79
2023/12/02 15:19:23;;;;;;;9.32;6.72;;;;;;;20.59;48.85;98518.72;41533472;28;20122;-80
2023/12/02 15:39:23;;;;;;;8.82;6.70;;;;;;;20.48;49.10;98494.41;41506767;28;20118;-79
2023/12/02 15:59:24;;;;;;;8.73;6.00;;;;;;;20.51;48.11;98624.72;41457936;28;20105;-77
2023/12/02 16:19:25;;;;;;;9.07;5.85;;;;;;;20.24;44.79;98668.59;41325594;28;20069;-79
2023/12/02 16:39:26;;;;;;;6.35;5.35;;;;;;;20.30;46.57;98656.66;41293577;28;20106;-79
2023/12/02 16:59:48;;;;;;;7.13;5.45;;;;;;;20.31;47.08;98674.03;41326774;28;20077;-77
2023/12/02 17:19:49;;;;;;;6.80;5.25;;;;;;;20.28;47.16;98698.03;41346410;28;20066;-77
2023/12/02 17:39:49;;;;;;;6.32;4.78;;;;;;;20.36;46.63;98750.66;41341657;28;20528;-78
2023/12/02 17:59:49;;;;;;;10.07;4.93;;;;;;;20.33;46.65;98808.78;41376760;28;20049;-79
2023/12/02 18:19:50;;;;;;;8.32;4.75;;;;;;;20.46;46.64;98884.66;41364715;28;20042;-77
2023/12/02 18:39:50;;;;;;;5.70;4.55;;;;;;;20.33;46.70;98919.19;41355017;28;20484;-75
2023/12/02 18:59:51;;;;;;;7.00;5.22;;;;;;;20.31;46.43;98939.53;41370088;28;20089;-76
2023/12/02 19:19:51;;;;;;;6.85;5.40;;;;;;;20.36;46.42;99020.59;41364722;28;20497;-76
2023/12/02 19:39:52;;;;;;;9.57;6.30;;;;;;;20.31;46.20;99040.25;41342638;28;20379;-76
2023/12/02 19:59:56;;;;;;;11.07;6.85;;;;;;;20.36;46.68;99087.16;41331398;28;20503;-74
2023/12/02 20:19:56;;;;;;;10.85;7.72;;;;;;;20.36;46.40;99154.66;41331710;28;20097;-73
2023/12/02 20:39:57;;;;;;;18.08;7.97;;;;;;;20.36;47.26;99212.50;41410767;28;20041;-76
2023/12/02 20:59:57;;;;;;;11.13;8.45;;;;;;;20.38;47.07;99253.44;41443964;28;20050;-74
2023/12/02 21:19:58;;;;;;;10.95;7.85;;;;;;;20.35;46.92;99329.13;41446995;28;20083;-75
2023/12/02 21:39:58;;;;;;;10.57;7.20;;;;;;;20.21;47.45;99367.19;41491488;28;20061;-73
2023/12/02 21:59:58;;;;;;;10.70;7.78;;;;;;;20.12;47.39;99438.00;41460596;28;20136;-74
2023/12/02 22:19:59;;;;;;;9.52;7.60;;;;;;;20.07;47.37;99478.81;41441881;28;20050;-69
2023/12/02 22:39:59;;;;;;;11.25;7.45;;;;;;;20.08;47.53;99530.38;41432824;28;20050;-71
2023/12/02 23:00:00;;;;;;;10.23;7.97;;;;;;;20.02;47.68;99544.06;41433722;28;20046;-70
2023/12/02 23:20:03;;;;;;;8.52;6.70;;;;;;;20.04;47.46;99613.91;41394271;28;20047;-70
2023/12/02 23:40:05;;;;;;;8.63;6.13;;;;;;;20.09;47.39;99661.69;41323109;28;20061;-70
